sensor_id;sensor_type;location;lat;lon;timestamp;P1;P2;P0
23240;PMS7003;11789;53.482;9.862;2023-07-13T00:01:50;3.00;3.00;2.50
23240;PMS7003;11789;53.482;9.862;2023-07-13T00:04:17;3.00;3.00;2.00
23240;PMS7003;11789;53.482;9.862;2023-07-13T00:06:44;3.00;3.00;2.75
23240;PMS7003;11789;53.482;9.862;2023-07-13T00:09:13;3.25;3.25;3.00
23240;PMS7003;11789;53.482;9.862;2023-07-13T00:11:40;3.00;3.00;3.00
23240;PMS7003;11789;53.482;9.862;2023-07-13T00:14:06;3.75;3.75;3.00
23240;PMS7003;11789;53.482;9.862;2023-07-13T00:16:36;4.75;4.00;3.25
23240;PMS7003;11789;53.482;9.862;2023-07-13T00:19:03;6.00;4.50;3.50
23240;PMS7003;11789;53.482;9.862;2023-07-13T00:21:30;3.25;3.25;3.00
23240;PMS7003;11789;53.482;9.862;2023-07-13T00:23:55;3.25;3.25;3.00
23240;PMS7003;11789;53.482;9.862;2023-07-13T00:26:21;5.75;3.00;3.00
23240;PMS7003;11789;53.482;9.862;2023-07-13T00:28:47;4.00;4.00;3.25
23240;PMS7003;11789;53.482;9.862;2023-07-13T00:31:12;3.00;3.00;3.00
23240;PMS7003;11789;53.482;9.862;2023-07-13T00:33:39;3.50;3.50;3.00
23240;PMS7003;11789;53.482;9.862;2023-07-13T00:36:05;5.00;4.75;3.50
23240;PMS7003;11789;53.482;9.862;2023-07-13T00:38:31;4.00;4.00;3.25
23240;PMS7003;11789;53.482;9.862;2023-07-13T00:40:57;4.00;4.00;3.75
23240;PMS7003;11789;53.482;9.862;2023-07-13T00:43:23;4.00;4.00;3.25
23240;PMS7003;11789;53.482;9.862;2023-07-13T00:48:18;3.00;3.00;3.00
23240;PMS7003;11789;53.482;9.862;2023-07-13T00:50:46;5.00;5.00;4.00
23240;PMS7003;11789;53.482;9.862;2023-07-13T00:53:15;4.00;4.00;3.25
23240;PMS7003;11789;53.482;9.862;2023-07-13T00:55:42;4.00;4.00;3.75
23240;PMS7003;11789;53.482;9.862;2023-07-13T00:58:09;3.75;3.75;3.00
23240;PMS7003;11789;53.482;9.862;2023-07-13T01:00:35;4.00;4.00;4.00
23240;PMS7003;11789;53.482;9.862;2023-07-13T01:03:03;5.00;4.00;3.00
23240;PMS7003;11789;53.482;9.862;2023-07-13T01:05:29;4.25;4.25;3.50
23240;PMS7003;11789;53.482;9.862;2023-07-13T01:07:58;5.25;5.25;4.00
23240;PMS7003;11789;53.482;9.862;2023-07-13T01:10:25;4.00;4.00;3.75
23240;PMS7003;11789;53.482;9.862;2023-07-13T01:12:51;5.00;5.00;4.50
23240;PMS7003;11789;53.482;9.862;2023-07-13T01:18:19;6.00;6.00;5.00
23240;PMS7003;11789;53.482;9.862;2023-07-13T01:23:19;4.75;4.75;4.25
23240;PMS7003;11789;53.482;9.862;2023-07-13T01:25:45;3.50;3.50;3.00
23240;PMS7003;11789;53.482;9.862;2023-07-13T01:28:11;6.00;6.00;5.25
23240;PMS7003;11789;53.482;9.862;2023-07-13T01:30:37;6.00;6.00;5.25
23240;PMS7003;11789;53.482;9.862;2023-07-13T01:33:05;7.50;7.50;6.25
23240;PMS7003;11789;53.482;9.862;2023-07-13T01:35:32;8.75;8.75;7.00
23240;PMS7003;11789;53.482;9.862;2023-07-13T01:37:58;6.75;6.75;5.00
23240;PMS7003;11789;53.482;9.862;2023-07-13T01:40:26;9.00;9.00;7.00
23240;PMS7003;11789;53.482;9.862;2023-07-13T01:42:52;10.00;10.00;7.50
23240;PMS7003;11789;53.482;9.862;2023-07-13T01:45:17;10.00;10.00;8.25
23240;PMS7003;11789;53.482;9.862;2023-07-13T01:47:43;11.75;9.25;8.00
23240;PMS7003;11789;53.482;9.862;2023-07-13T01:50:08;12.25;10.75;8.50
23240;PMS7003;11789;53.482;9.862;2023-07-13T01:52:34;8.50;7.00;6.00
23240;PMS7003;11789;53.482;9.862;2023-07-13T01:54:59;11.75;10.25;8.00
23240;PMS7003;11789;53.482;9.862;2023-07-13T01:57:25;11.75;11.00;7.50
23240;PMS7003;11789;53.482;9.862;2023-07-13T01:59:50;10.25;10.25;8.25
23240;PMS7003;11789;53.482;9.862;2023-07-13T02:02:16;10.00;10.00;7.25
23240;PMS7003;11789;53.482;9.862;2023-07-13T02:04:41;10.50;8.75;6.50
23240;PMS7003;11789;53.482;9.862;2023-07-13T02:07:07;11.50;11.00;9.00
23240;PMS7003;11789;53.482;9.862;2023-07-13T02:09:34;11.50;10.00;8.25
23240;PMS7003;11789;53.482;9.862;2023-07-13T02:12:00;9.25;9.25;7.50
23240;PMS7003;11789;53.482;9.862;2023-07-13T02:14:25;11.25;9.50;7.00
23240;PMS7003;11789;53.482;9.862;2023-07-13T02:16:51;11.00;11.00;8.50
23240;PMS7003;11789;53.482;9.862;2023-07-13T02:19:16;9.25;9.25;6.75
23240;PMS7003;11789;53.482;9.862;2023-07-13T02:21:42;10.25;10.25;9.00
23240;PMS7003;11789;53.482;9.862;2023-07-13T02:24:08;9.75;9.75;8.50
23240;PMS7003;11789;53.482;9.862;2023-07-13T02:26:33;13.00;9.50;8.00
23240;PMS7003;11789;53.482;9.862;2023-07-13T02:28:59;9.25;9.25;7.00
23240;PMS7003;11789;53.482;9.862;2023-07-13T02:31:24;9.25;9.25;7.75
23240;PMS7003;11789;53.482;9.862;2023-07-13T02:33:50;12.00;12.00;9.25
23240;PMS7003;11789;53.482;9.862;2023-07-13T02:36:16;11.25;11.25;8.50
23240;PMS7003;11789;53.482;9.862;2023-07-13T02:38:41;9.50;9.50;7.25
23240;PMS7003;11789;53.482;9.862;2023-07-13T02:41:07;10.75;10.75;8.75
23240;PMS7003;11789;53.482;9.862;2023-07-13T02:43:34;9.50;9.50;7.50
23240;PMS7003;11789;53.482;9.862;2023-07-13T02:46:00;10.50;10.50;8.50
23240;PMS7003;11789;53.482;9.862;2023-07-13T02:48:32;10.25;10.25;8.25
23240;PMS7003;11789;53.482;9.862;2023-07-13T02:50:58;11.00;11.00;7.00
23240;PMS7003;11789;53.482;9.862;2023-07-13T02:53:24;7.50;7.50;5.50
23240;PMS7003;11789;53.482;9.862;2023-07-13T02:55:49;10.00;9.25;7.50
23240;PMS7003;11789;53.482;9.862;2023-07-13T02:58:16;11.00;9.75;8.25
23240;PMS7003;11789;53.482;9.862;2023-07-13T03:00:42;8.75;8.75;7.75
23240;PMS7003;11789;53.482;9.862;2023-07-13T03:03:09;9.25;9.25;7.25
23240;PMS7003;11789;53.482;9.862;2023-07-13T03:05:36;9.50;9.50;8.00
23240;PMS7003;11789;53.482;9.862;2023-07-13T03:08:02;9.50;9.50;8.25
23240;PMS7003;11789;53.482;9.862;2023-07-13T03:10:29;11.25;11.25;8.25
23240;PMS7003;11789;53.482;9.862;2023-07-13T03:12:54;10.25;10.25;8.00
23240;PMS7003;11789;53.482;9.862;2023-07-13T03:15:19;8.75;7.75;7.50
23240;PMS7003;11789;53.482;9.862;2023-07-13T03:17:45;12.50;9.75;8.00
23240;PMS7003;11789;53.482;9.862;2023-07-13T03:20:10;9.50;9.50;6.00
23240;PMS7003;11789;53.482;9.862;2023-07-13T03:22:37;12.00;11.00;7.75
23240;PMS7003;11789;53.482;9.862;2023-07-13T03:25:02;11.00;10.00;7.50
23240;PMS7003;11789;53.482;9.862;2023-07-13T03:27:28;8.75;8.50;7.25
23240;PMS7003;11789;53.482;9.862;2023-07-13T03:29:53;8.25;8.25;6.25
23240;PMS7003;11789;53.482;9.862;2023-07-13T03:32:19;10.75;8.75;7.75
23240;PMS7003;11789;53.482;9.862;2023-07-13T03:34:44;10.25;9.00;6.00
23240;PMS7003;11789;53.482;9.862;2023-07-13T03:37:09;8.75;8.75;7.50
23240;PMS7003;11789;53.482;9.862;2023-07-13T03:39:35;8.75;8.00;7.25
23240;PMS7003;11789;53.482;9.862;2023-07-13T03:42:00;9.75;9.00;6.25
23240;PMS7003;11789;53.482;9.862;2023-07-13T03:44:26;10.50;9.00;7.25
23240;PMS7003;11789;53.482;9.862;2023-07-13T03:46:51;7.00;7.00;5.25
23240;PMS7003;11789;53.482;9.862;2023-07-13T03:49:17;10.50;9.25;7.25
23240;PMS7003;11789;53.482;9.862;2023-07-13T03:51:42;9.00;7.75;5.50
23240;PMS7003;11789;53.482;9.862;2023-07-13T03:54:07;9.50;6.50;5.00
23240;PMS7003;11789;53.482;9.862;2023-07-13T03:56:33;9.25;7.50;6.00
23240;PMS7003;11789;53.482;9.862;2023-07-13T03:58:58;9.50;8.25;6.75
23240;PMS7003;11789;53.482;9.862;2023-07-13T04:01:25;10.50;9.00;7.25
23240;PMS7003;11789;53.482;9.862;2023-07-13T04:03:51;9.75;9.75;7.00
23240;PMS7003;11789;53.482;9.862;2023-07-13T04:06:18;9.25;8.25;6.00
23240;PMS7003;11789;53.482;9.862;2023-07-13T04:08:50;16.00;10.75;8.50
23240;PMS7003;11789;53.482;9.862;2023-07-13T04:11:20;13.75;11.00;8.50
23240;PMS7003;11789;53.482;9.862;2023-07-13T04:13:48;9.00;9.00;7.00
23240;PMS7003;11789;53.482;9.862;2023-07-13T04:16:15;10.25;9.25;6.50
23240;PMS7003;11789;53.482;9.862;2023-07-13T04:18:42;11.50;9.50;7.50
23240;PMS7003;11789;53.482;9.862;2023-07-13T04:21:08;11.50;8.25;7.25
23240;PMS7003;11789;53.482;9.862;2023-07-13T04:23:35;8.50;8.50;5.75
23240;PMS7003;11789;53.482;9.862;2023-07-13T04:26:01;9.00;7.75;6.25
23240;PMS7003;11789;53.482;9.862;2023-07-13T04:28:27;10.25;8.00;6.75
23240;PMS7003;11789;53.482;9.862;2023-07-13T04:30:53;13.75;10.00;7.25
23240;PMS7003;11789;53.482;9.862;2023-07-13T04:33:19;11.25;9.75;8.00
23240;PMS7003;11789;53.482;9.862;2023-07-13T04:35:50;9.25;9.25;7.75
23240;PMS7003;11789;53.482;9.862;2023-07-13T04:38:21;10.75;10.75;8.00
23240;PMS7003;11789;53.482;9.862;2023-07-13T04:40:47;9.25;9.25;7.00
23240;PMS7003;11789;53.482;9.862;2023-07-13T04:43:13;11.25;10.25;8.25
23240;PMS7003;11789;53.482;9.862;2023-07-13T04:45:39;12.25;9.25;6.50
23240;PMS7003;11789;53.482;9.862;2023-07-13T04:48:04;12.75;9.00;7.25
23240;PMS7003;11789;53.482;9.862;2023-07-13T04:50:30;12.00;10.75;7.75
23240;PMS7003;11789;53.482;9.862;2023-07-13T04:52:56;11.25;10.00;7.00
23240;PMS7003;11789;53.482;9.862;2023-07-13T04:55:21;9.75;9.75;7.00
23240;PMS7003;11789;53.482;9.862;2023-07-13T04:57:47;11.50;10.00;8.50
23240;PMS7003;11789;53.482;9.862;2023-07-13T05:00:13;13.25;10.25;8.25
23240;PMS7003;11789;53.482;9.862;2023-07-13T05:02:40;10.00;10.00;7.50
23240;PMS7003;11789;53.482;9.862;2023-07-13T05:05:10;12.00;11.25;8.25
23240;PMS7003;11789;53.482;9.862;2023-07-13T05:07:36;11.75;9.00;6.00
23240;PMS7003;11789;53.482;9.862;2023-07-13T05:10:02;8.25;8.25;6.75
23240;PMS7003;11789;53.482;9.862;2023-07-13T05:12:29;11.25;11.25;8.75
23240;PMS7003;11789;53.482;9.862;2023-07-13T05:14:54;11.50;11.50;9.00
23240;PMS7003;11789;53.482;9.862;2023-07-13T05:17:20;14.00;12.00;8.50
23240;PMS7003;11789;53.482;9.862;2023-07-13T05:19:46;8.50;8.25;6.25
23240;PMS7003;11789;53.482;9.862;2023-07-13T05:22:11;8.25;8.25;7.25
23240;PMS7003;11789;53.482;9.862;2023-07-13T05:24:37;9.50;8.75;7.00
23240;PMS7003;11789;53.482;9.862;2023-07-13T05:27:03;10.00;10.00;6.50
23240;PMS7003;11789;53.482;9.862;2023-07-13T05:29:28;8.00;7.50;6.00
23240;PMS7003;11789;53.482;9.862;2023-07-13T05:31:54;9.75;9.00;7.00
23240;PMS7003;11789;53.482;9.862;2023-07-13T05:34:19;8.00;6.75;5.50
23240;PMS7003;11789;53.482;9.862;2023-07-13T05:36:45;8.50;8.50;6.25
23240;PMS7003;11789;53.482;9.862;2023-07-13T05:39:10;10.25;9.75;7.25
23240;PMS7003;11789;53.482;9.862;2023-07-13T05:41:36;12.00;11.25;8.25
23240;PMS7003;11789;53.482;9.862;2023-07-13T05:44:02;9.00;8.25;6.75
23240;PMS7003;11789;53.482;9.862;2023-07-13T05:46:28;10.25;10.25;7.75
23240;PMS7003;11789;53.482;9.862;2023-07-13T05:48:54;9.25;9.25;8.25
23240;PMS7003;11789;53.482;9.862;2023-07-13T05:51:20;8.00;8.00;6.25
23240;PMS7003;11789;53.482;9.862;2023-07-13T05:53:45;12.75;9.75;8.50
23240;PMS7003;11789;53.482;9.862;2023-07-13T05:56:11;9.50;9.50;6.00
23240;PMS7003;11789;53.482;9.862;2023-07-13T05:58:36;8.75;8.75;6.25
23240;PMS7003;11789;53.482;9.862;2023-07-13T06:01:04;10.25;9.25;6.00
23240;PMS7003;11789;53.482;9.862;2023-07-13T06:03:31;11.00;9.00;7.00
23240;PMS7003;11789;53.482;9.862;2023-07-13T06:05:57;8.25;8.25;7.00
23240;PMS7003;11789;53.482;9.862;2023-07-13T06:08:25;11.00;9.75;6.25
23240;PMS7003;11789;53.482;9.862;2023-07-13T06:10:52;9.00;9.00;6.50
23240;PMS7003;11789;53.482;9.862;2023-07-13T06:13:17;10.00;9.00;7.00
23240;PMS7003;11789;53.482;9.862;2023-07-13T06:15:47;7.75;7.25;5.75
23240;PMS7003;11789;53.482;9.862;2023-07-13T06:18:14;8.75;7.50;6.00
23240;PMS7003;11789;53.482;9.862;2023-07-13T06:20:39;6.50;6.50;5.00
23240;PMS7003;11789;53.482;9.862;2023-07-13T06:23:05;7.25;7.25;6.00
23240;PMS7003;11789;53.482;9.862;2023-07-13T06:25:30;10.00;8.50;6.00
23240;PMS7003;11789;53.482;9.862;2023-07-13T06:27:55;11.50;8.50;6.00
23240;PMS7003;11789;53.482;9.862;2023-07-13T06:30:21;7.00;5.50;5.00
23240;PMS7003;11789;53.482;9.862;2023-07-13T06:32:46;11.75;8.00;6.00
23240;PMS7003;11789;53.482;9.862;2023-07-13T06:35:12;9.00;6.50;5.25
23240;PMS7003;11789;53.482;9.862;2023-07-13T06:37:38;8.50;7.00;5.00
23240;PMS7003;11789;53.482;9.862;2023-07-13T06:40:04;6.00;6.00;5.00
23240;PMS7003;11789;53.482;9.862;2023-07-13T06:42:30;7.50;5.75;4.50
23240;PMS7003;11789;53.482;9.862;2023-07-13T06:44:55;8.25;7.00;5.50
23240;PMS7003;11789;53.482;9.862;2023-07-13T06:47:21;7.00;7.00;6.00
23240;PMS7003;11789;53.482;9.862;2023-07-13T06:49:46;8.00;8.00;5.25
23240;PMS7003;11789;53.482;9.862;2023-07-13T06:52:12;8.00;5.00;5.00
23240;PMS7003;11789;53.482;9.862;2023-07-13T06:54:37;6.00;6.00;5.00
23240;PMS7003;11789;53.482;9.862;2023-07-13T06:57:02;6.50;6.00;5.00
23240;PMS7003;11789;53.482;9.862;2023-07-13T06:59:28;7.25;5.75;5.25
23240;PMS7003;11789;53.482;9.862;2023-07-13T07:01:54;7.25;4.25;3.75
23240;PMS7003;11789;53.482;9.862;2023-07-13T07:04:19;4.00;4.00;3.00
23240;PMS7003;11789;53.482;9.862;2023-07-13T07:06:45;8.00;6.25;4.75
23240;PMS7003;11789;53.482;9.862;2023-07-13T07:09:10;9.25;7.00;5.25
23240;PMS7003;11789;53.482;9.862;2023-07-13T07:11:36;5.25;5.25;4.00
23240;PMS7003;11789;53.482;9.862;2023-07-13T07:14:02;6.50;6.25;4.25
23240;PMS7003;11789;53.482;9.862;2023-07-13T07:16:27;11.25;6.50;5.00
23240;PMS7003;11789;53.482;9.862;2023-07-13T07:18:53;7.00;6.00;5.00
23240;PMS7003;11789;53.482;9.862;2023-07-13T07:21:18;4.75;4.25;3.25
23240;PMS7003;11789;53.482;9.862;2023-07-13T07:23:44;4.50;4.00;3.50
23240;PMS7003;11789;53.482;9.862;2023-07-13T07:26:09;6.00;4.75;3.50
23240;PMS7003;11789;53.482;9.862;2023-07-13T07:28:35;4.00;4.00;3.50
23240;PMS7003;11789;53.482;9.862;2023-07-13T07:31:01;5.00;5.00;4.50
23240;PMS7003;11789;53.482;9.862;2023-07-13T07:33:27;5.75;5.00;4.00
23240;PMS7003;11789;53.482;9.862;2023-07-13T07:35:52;6.75;6.00;4.00
23240;PMS7003;11789;53.482;9.862;2023-07-13T07:38:18;9.25;7.50;4.50
23240;PMS7003;11789;53.482;9.862;2023-07-13T07:40:43;5.25;5.25;4.75
23240;PMS7003;11789;53.482;9.862;2023-07-13T07:43:10;5.00;5.00;4.75
23240;PMS7003;11789;53.482;9.862;2023-07-13T07:45:37;7.50;5.50;4.00
23240;PMS7003;11789;53.482;9.862;2023-07-13T07:48:04;7.25;7.25;6.00
23240;PMS7003;11789;53.482;9.862;2023-07-13T07:50:30;10.25;7.00;5.50
23240;PMS7003;11789;53.482;9.862;2023-07-13T07:52:56;6.75;5.00;4.00
23240;PMS7003;11789;53.482;9.862;2023-07-13T07:55:22;9.50;9.50;6.00
23240;PMS7003;11789;53.482;9.862;2023-07-13T07:57:50;8.00;8.00;5.00
23240;PMS7003;11789;53.482;9.862;2023-07-13T08:00:16;6.25;6.25;5.00
23240;PMS7003;11789;53.482;9.862;2023-07-13T08:02:43;10.75;8.75;7.00
23240;PMS7003;11789;53.482;9.862;2023-07-13T08:05:09;8.75;7.50;6.25
23240;PMS7003;11789;53.482;9.862;2023-07-13T08:07:38;11.25;8.00;7.00
23240;PMS7003;11789;53.482;9.862;2023-07-13T08:10:04;11.25;11.25;9.00
23240;PMS7003;11789;53.482;9.862;2023-07-13T08:12:37;11.25;11.00;8.50
23240;PMS7003;11789;53.482;9.862;2023-07-13T08:15:05;9.25;9.25;8.50
23240;PMS7003;11789;53.482;9.862;2023-07-13T08:17:34;14.25;11.75;8.50
23240;PMS7003;11789;53.482;9.862;2023-07-13T08:20:00;9.75;9.50;8.25
23240;PMS7003;11789;53.482;9.862;2023-07-13T08:22:25;10.50;10.50;7.75
23240;PMS7003;11789;53.482;9.862;2023-07-13T08:24:51;12.50;9.25;8.00
23240;PMS7003;11789;53.482;9.862;2023-07-13T08:27:21;9.75;8.50;7.00
23240;PMS7003;11789;53.482;9.862;2023-07-13T08:29:50;11.50;10.25;8.00
23240;PMS7003;11789;53.482;9.862;2023-07-13T08:32:17;11.50;11.50;9.00
23240;PMS7003;11789;53.482;9.862;2023-07-13T08:34:44;10.25;10.25;8.75
23240;PMS7003;11789;53.482;9.862;2023-07-13T08:37:09;13.50;11.25;10.00
23240;PMS7003;11789;53.482;9.862;2023-07-13T08:39:35;14.00;11.25;10.00
23240;PMS7003;11789;53.482;9.862;2023-07-13T08:44:59;12.00;10.25;8.75
23240;PMS7003;11789;53.482;9.862;2023-07-13T08:47:37;13.50;11.25;8.25
23240;PMS7003;11789;53.482;9.862;2023-07-13T08:50:09;13.50;12.75;10.25
23240;PMS7003;11789;53.482;9.862;2023-07-13T08:52:39;12.25;11.00;9.00
23240;PMS7003;11789;53.482;9.862;2023-07-13T08:57:46;15.00;11.25;8.00
23240;PMS7003;11789;53.482;9.862;2023-07-13T09:00:17;10.50;10.00;8.75
23240;PMS7003;11789;53.482;9.862;2023-07-13T09:02:54;9.75;8.50;7.00
23240;PMS7003;11789;53.482;9.862;2023-07-13T09:05:27;11.50;11.50;8.00
23240;PMS7003;11789;53.482;9.862;2023-07-13T09:10:28;13.00;13.00;10.00
23240;PMS7003;11789;53.482;9.862;2023-07-13T09:13:04;12.50;12.50;9.25
23240;PMS7003;11789;53.482;9.862;2023-07-13T09:15:41;13.25;12.00;8.50
23240;PMS7003;11789;53.482;9.862;2023-07-13T09:18:22;11.25;11.25;9.75
23240;PMS7003;11789;53.482;9.862;2023-07-13T09:21:10;11.67;11.67;9.00
23240;PMS7003;11789;53.482;9.862;2023-07-13T09:23:40;10.67;10.67;8.33
23240;PMS7003;11789;53.482;9.862;2023-07-13T09:26:13;9.25;9.25;8.25
23240;PMS7003;11789;53.482;9.862;2023-07-13T09:28:44;10.75;10.00;8.00
23240;PMS7003;11789;53.482;9.862;2023-07-13T09:33:41;11.00;9.25;8.00
23240;PMS7003;11789;53.482;9.862;2023-07-13T09:36:17;11.75;11.75;9.50
23240;PMS7003;11789;53.482;9.862;2023-07-13T09:38:43;9.00;8.50;7.00
23240;PMS7003;11789;53.482;9.862;2023-07-13T09:44:01;10.00;10.00;9.00
23240;PMS7003;11789;53.482;9.862;2023-07-13T09:46:27;9.33;9.33;7.67
23240;PMS7003;11789;53.482;9.862;2023-07-13T09:48:52;8.33;8.33;6.33
23240;PMS7003;11789;53.482;9.862;2023-07-13T09:51:18;8.33;8.33;7.33
23240;PMS7003;11789;53.482;9.862;2023-07-13T09:53:43;9.67;8.33;7.00
23240;PMS7003;11789;53.482;9.862;2023-07-13T09:56:19;9.00;8.67;7.67
23240;PMS7003;11789;53.482;9.862;2023-07-13T09:58:46;8.00;8.00;7.00
23240;PMS7003;11789;53.482;9.862;2023-07-13T10:01:12;7.33;7.33;6.00
23240;PMS7003;11789;53.482;9.862;2023-07-13T10:03:37;6.67;6.67;5.33
23240;PMS7003;11789;53.482;9.862;2023-07-13T10:06:11;7.33;6.33;5.00
23240;PMS7003;11789;53.482;9.862;2023-07-13T10:08:37;7.67;6.00;4.00
23240;PMS7003;11789;53.482;9.862;2023-07-13T10:11:14;7.00;7.00;6.00
23240;PMS7003;11789;53.482;9.862;2023-07-13T10:13:44;5.67;5.67;5.00
23240;PMS7003;11789;53.482;9.862;2023-07-13T10:16:15;5.00;5.00;4.00
23240;PMS7003;11789;53.482;9.862;2023-07-13T10:18:46;5.33;5.33;4.00
23240;PMS7003;11789;53.482;9.862;2023-07-13T10:21:18;4.00;4.00;3.00
23240;PMS7003;11789;53.482;9.862;2023-07-13T10:24:20;6.67;4.33;4.00
23240;PMS7003;11789;53.482;9.862;2023-07-13T10:26:46;8.00;7.00;5.00
23240;PMS7003;11789;53.482;9.862;2023-07-13T10:29:17;5.00;5.00;4.00
23240;PMS7003;11789;53.482;9.862;2023-07-13T10:31:44;7.00;5.33;5.00
23240;PMS7003;11789;53.482;9.862;2023-07-13T10:34:13;4.00;4.00;4.00
23240;PMS7003;11789;53.482;9.862;2023-07-13T10:36:43;4.67;4.67;4.00
23240;PMS7003;11789;53.482;9.862;2023-07-13T10:39:16;4.00;4.00;4.00
23240;PMS7003;11789;53.482;9.862;2023-07-13T10:41:44;7.00;5.33;4.33
23240;PMS7003;11789;53.482;9.862;2023-07-13T10:44:18;3.67;3.67;3.00
23240;PMS7003;11789;53.482;9.862;2023-07-13T10:46:50;4.00;4.00;4.00
23240;PMS7003;11789;53.482;9.862;2023-07-13T10:49:19;5.00;5.00;4.33
23240;PMS7003;11789;53.482;9.862;2023-07-13T10:51:46;5.00;5.00;4.67
23240;PMS7003;11789;53.482;9.862;2023-07-13T10:56:44;5.00;5.00;5.00
23240;PMS7003;11789;53.482;9.862;2023-07-13T10:59:12;7.00;5.33;4.33
23240;PMS7003;11789;53.482;9.862;2023-07-13T11:01:48;6.00;5.00;4.67
23240;PMS7003;11789;53.482;9.862;2023-07-13T11:04:18;7.67;4.67;3.00
23240;PMS7003;11789;53.482;9.862;2023-07-13T11:06:46;6.00;4.67;4.00
23240;PMS7003;11789;53.482;9.862;2023-07-13T11:12:54;5.00;4.50;4.00
23240;PMS7003;11789;53.482;9.862;2023-07-13T11:15:12;4.00;4.00;3.00
23240;PMS7003;11789;53.482;9.862;2023-07-13T11:22:47;4.00;4.00;4.00
23240;PMS7003;11789;53.482;9.862;2023-07-13T11:27:51;6.33;4.67;4.00
23240;PMS7003;11789;53.482;9.862;2023-07-13T11:30:32;4.00;4.00;4.00
23240;PMS7003;11789;53.482;9.862;2023-07-13T11:35:51;5.67;4.33;4.00
23240;PMS7003;11789;53.482;9.862;2023-07-13T11:38:38;5.25;4.25;4.00
23240;PMS7003;11789;53.482;9.862;2023-07-13T11:41:07;3.00;3.00;3.00
23240;PMS7003;11789;53.482;9.862;2023-07-13T11:43:40;5.00;5.00;4.00
23240;PMS7003;11789;53.482;9.862;2023-07-13T11:46:19;5.00;5.00;3.33
23240;PMS7003;11789;53.482;9.862;2023-07-13T11:48:52;5.00;5.00;4.00
23240;PMS7003;11789;53.482;9.862;2023-07-13T11:51:22;4.00;4.00;3.00
23240;PMS7003;11789;53.482;9.862;2023-07-13T11:53:52;4.00;4.00;4.00
23240;PMS7003;11789;53.482;9.862;2023-07-13T11:56:20;4.00;4.00;3.00
23240;PMS7003;11789;53.482;9.862;2023-07-13T11:58:48;6.00;6.00;5.00
23240;PMS7003;11789;53.482;9.862;2023-07-13T12:01:17;4.00;4.00;3.33
23240;PMS7003;11789;53.482;9.862;2023-07-13T12:03:46;4.00;4.00;3.00
23240;PMS7003;11789;53.482;9.862;2023-07-13T12:06:33;6.33;5.00;4.00
23240;PMS7003;11789;53.482;9.862;2023-07-13T12:09:10;5.00;4.67;3.67
23240;PMS7003;11789;53.482;9.862;2023-07-13T12:11:40;5.33;5.33;5.00
23240;PMS7003;11789;53.482;9.862;2023-07-13T12:14:26;4.00;4.00;3.33
23240;PMS7003;11789;53.482;9.862;2023-07-13T12:16:52;3.00;3.00;3.00
23240;PMS7003;11789;53.482;9.862;2023-07-13T12:19:22;4.00;4.00;3.33
23240;PMS7003;11789;53.482;9.862;2023-07-13T12:21:50;3.67;3.67;3.67
23240;PMS7003;11789;53.482;9.862;2023-07-13T12:24:20;4.00;4.00;3.33
23240;PMS7003;11789;53.482;9.862;2023-07-13T12:27:06;4.50;4.50;3.75
23240;PMS7003;11789;53.482;9.862;2023-07-13T12:29:48;4.50;4.00;3.00
23240;PMS7003;11789;53.482;9.862;2023-07-13T12:32:17;5.00;5.00;4.50
23240;PMS7003;11789;53.482;9.862;2023-07-13T12:34:55;5.00;4.25;4.00
23240;PMS7003;11789;53.482;9.862;2023-07-13T12:37:23;4.00;4.00;3.75
23240;PMS7003;11789;53.482;9.862;2023-07-13T12:39:50;4.25;4.25;3.00
23240;PMS7003;11789;53.482;9.862;2023-07-13T12:44:53;5.00;4.00;3.00
23240;PMS7003;11789;53.482;9.862;2023-07-13T12:47:22;4.75;3.75;3.00
23240;PMS7003;11789;53.482;9.862;2023-07-13T12:49:49;5.00;3.25;3.00
23240;PMS7003;11789;53.482;9.862;2023-07-13T12:52:21;3.50;3.50;3.25
23240;PMS7003;11789;53.482;9.862;2023-07-13T12:54:57;5.75;4.00;3.50
23240;PMS7003;11789;53.482;9.862;2023-07-13T12:57:25;6.50;4.25;3.50
23240;PMS7003;11789;53.482;9.862;2023-07-13T12:59:52;3.25;3.25;3.00
23240;PMS7003;11789;53.482;9.862;2023-07-13T13:02:29;4.50;4.00;3.00
23240;PMS7003;11789;53.482;9.862;2023-07-13T13:04:57;4.00;4.00;3.00
23240;PMS7003;11789;53.482;9.862;2023-07-13T13:07:24;3.00;3.00;3.00
23240;PMS7003;11789;53.482;9.862;2023-07-13T13:09:50;4.50;4.50;3.50
23240;PMS7003;11789;53.482;9.862;2023-07-13T13:12:16;5.00;4.00;3.00
23240;PMS7003;11789;53.482;9.862;2023-07-13T13:14:42;5.00;3.25;3.00
23240;PMS7003;11789;53.482;9.862;2023-07-13T13:17:16;5.00;5.00;3.75
23240;PMS7003;11789;53.482;9.862;2023-07-13T13:19:52;4.25;4.25;3.00
23240;PMS7003;11789;53.482;9.862;2023-07-13T13:22:21;5.75;4.25;3.75
23240;PMS7003;11789;53.482;9.862;2023-07-13T13:24:46;6.00;4.50;3.50
23240;PMS7003;11789;53.482;9.862;2023-07-13T13:27:19;4.00;4.00;3.25
23240;PMS7003;11789;53.482;9.862;2023-07-13T13:29:49;3.25;3.25;3.25
23240;PMS7003;11789;53.482;9.862;2023-07-13T13:32:16;5.00;3.50;3.00
23240;PMS7003;11789;53.482;9.862;2023-07-13T13:34:43;4.00;4.00;3.00
23240;PMS7003;11789;53.482;9.862;2023-07-13T13:37:16;3.00;3.00;2.75
23240;PMS7003;11789;53.482;9.862;2023-07-13T13:39:46;4.50;4.50;3.75
23240;PMS7003;11789;53.482;9.862;2023-07-13T13:42:12;4.00;4.00;4.00
23240;PMS7003;11789;53.482;9.862;2023-07-13T13:44:38;6.00;3.00;2.50
23240;PMS7003;11789;53.482;9.862;2023-07-13T13:47:03;4.00;3.00;2.00
23240;PMS7003;11789;53.482;9.862;2023-07-13T13:49:29;3.75;3.75;3.25
23240;PMS7003;11789;53.482;9.862;2023-07-13T13:51:56;4.00;4.00;3.00
23240;PMS7003;11789;53.482;9.862;2023-07-13T13:54:23;4.00;4.00;3.00
23240;PMS7003;11789;53.482;9.862;2023-07-13T13:56:50;4.25;4.25;4.00
23240;PMS7003;11789;53.482;9.862;2023-07-13T13:59:17;3.33;3.33;3.00
23240;PMS7003;11789;53.482;9.862;2023-07-13T14:01:43;5.00;4.00;4.00
23240;PMS7003;11789;53.482;9.862;2023-07-13T14:04:13;5.25;5.25;4.25
23240;PMS7003;11789;53.482;9.862;2023-07-13T14:06:43;5.33;4.00;3.67
23240;PMS7003;11789;53.482;9.862;2023-07-13T14:09:10;7.00;4.00;3.67
23240;PMS7003;11789;53.482;9.862;2023-07-13T14:11:38;3.00;3.00;3.00
23240;PMS7003;11789;53.482;9.862;2023-07-13T14:14:08;5.00;5.00;4.00
23240;PMS7003;11789;53.482;9.862;2023-07-13T14:16:39;4.00;4.00;4.00
23240;PMS7003;11789;53.482;9.862;2023-07-13T14:19:07;5.00;4.00;3.67
23240;PMS7003;11789;53.482;9.862;2023-07-13T14:21:36;3.00;3.00;3.00
23240;PMS7003;11789;53.482;9.862;2023-07-13T14:24:02;3.33;3.33;3.00
23240;PMS7003;11789;53.482;9.862;2023-07-13T14:26:36;6.00;4.00;4.00
23240;PMS7003;11789;53.482;9.862;2023-07-13T14:29:04;6.00;4.33;4.00
23240;PMS7003;11789;53.482;9.862;2023-07-13T14:31:42;4.00;4.00;4.00
23240;PMS7003;11789;53.482;9.862;2023-07-13T14:34:12;4.00;4.00;3.33
23240;PMS7003;11789;53.482;9.862;2023-07-13T14:36:43;5.00;3.00;2.67
23240;PMS7003;11789;53.482;9.862;2023-07-13T14:39:16;4.00;2.33;2.33
23240;PMS7003;11789;53.482;9.862;2023-07-13T14:41:43;4.00;4.00;3.00
23240;PMS7003;11789;53.482;9.862;2023-07-13T14:44:15;4.00;4.00;3.00
23240;PMS7003;11789;53.482;9.862;2023-07-13T14:46:42;5.00;5.00;4.00
23240;PMS7003;11789;53.482;9.862;2023-07-13T14:51:40;5.00;5.00;4.00
23240;PMS7003;11789;53.482;9.862;2023-07-13T14:54:06;4.00;4.00;3.00
23240;PMS7003;11789;53.482;9.862;2023-07-13T14:56:34;5.50;4.00;3.00
23240;PMS7003;11789;53.482;9.862;2023-07-13T14:59:00;4.75;4.00;4.00
23240;PMS7003;11789;53.482;9.862;2023-07-13T15:01:25;5.00;5.00;4.00
23240;PMS7003;11789;53.482;9.862;2023-07-13T15:03:52;9.25;6.00;5.00